Capt. Shelby House — WDC6536 — position and weather

sailwx.info

Track history (hours):
 
Tides and Currents Weather Stations Pressure Air Temp Water Temp Dewpoint Dewpoint Depression Visibility Wind Speed Wind Dir Waves Ship Positions

Capt. Shelby House

Owner: American Commercial Lines LLC, Jeffersonville, IN. More information available from US FCC via Universal Licensing System and Coast Guard Vessel Documentation Center.

Last reported at 2018-Aug-14 07:01 UTC. Time now 2018-Aug-14 07:04 UTC.
Position N 32°21' W 090°57'.

Length 48 m; draft 3.1 m.

Type: Towing. MMSI: 367057630.

Date/timePositionNaut miles runAvg speedWind from/ knotsBaromVisibWave heightAir tempDewpointWater temp
2018-Aug-14 07:01N 32°21' W 090°57'1 3.0
2018-Aug-14 06:31N 32°21' W 090°59'4 7.1
2018-Aug-14 06:00N 32°25' W 090°60'4 8.3
2018-Aug-14 05:31N 32°26' W 091°04'4 8.0
2018-Aug-14 05:00N 32°30' W 091°07'4 8.6
2018-Aug-14 04:31N 32°34' W 091°06'4 8.2
2018-Aug-14 04:00N 32°37' W 091°09'8 7.4
2018-Aug-14 02:55N 32°43' W 091°03'4 8.2
2018-Aug-14 02:25N 32°44' W 091°08'  
Track history (hours):
 
Tides and Currents Weather Stations Pressure Air Temp Water Temp Dewpoint Dewpoint Depression Visibility Wind Speed Wind Dir Waves Ship Positions

Capt. Shelby House

Owner: American Commercial Lines LLC, Jeffersonville, IN. More information available from US FCC via Universal Licensing System and Coast Guard Vessel Documentation Center.

Last reported at 2018-Aug-14 07:01 UTC. Time now 2018-Aug-14 07:04 UTC.
Position N 32°21' W 090°57'.

Length 48 m; draft 3.1 m.

Type: Towing. MMSI: 367057630.

Date/timePositionNaut miles runAvg speedWind from/ knotsBaromVisibWave heightAir tempDewpointWater temp
2018-Aug-14 07:01N 32°21' W 090°57'1 3.0
2018-Aug-14 06:31N 32°21' W 090°59'4 7.1
2018-Aug-14 06:00N 32°25' W 090°60'4 8.3
2018-Aug-14 05:31N 32°26' W 091°04'4 8.0
2018-Aug-14 05:00N 32°30' W 091°07'4 8.6
2018-Aug-14 04:31N 32°34' W 091°06'4 8.2
2018-Aug-14 04:00N 32°37' W 091°09'8 7.4
2018-Aug-14 02:55N 32°43' W 091°03'4 8.2
2018-Aug-14 02:25N 32°44' W 091°08'  

Dump ship's entire track history